• Join FlightAware (Why Join?)
  • Login
  • US Flag 
09:14AM EDT


 

Airport Tracker/Info


-or-


 

Live Flight TrackerFlight Track Log ✈ DAL949 ✈ 13-Jul-2013 ✈ KMSP - CYVR

Flight Track Log - Related Links

Times and Time Zones

All times are in EDT time to prevent confusion due to time zone crossing. See the DAL949 flight status page for this flight to view local times or setup timezone preferences in your user account.

Time Position Orientation Groundspeed Altitude Reporting Facility
EDT Latitude Longitude Course Direction KTS MPH feet Rate Location/Type
07:50PM 44.8667 -93.1833 292° West 166 191 1,900  Level Minneapolis TRACON
07:51PM 44.8667 -93.1169 90° East 203 234 2,800 1,620 Climbing Minneapolis Center
07:52PM 44.9017 -93.0319 60° Northeast 291 335 5,200 2,820 Climbing Minneapolis Center
07:53PM 45.0629 -93.8051 295° West  Level FlightAware Approximate
07:53PM 45.0019 -93.0164 North 303 349 8,600  Level Minneapolis Center
07:54PM 45.1052 -93.9565 288° West  Level FlightAware Approximate
07:54PM 45.0542 -93.0917 314° West 294 338 10,800  Level Minneapolis Center
07:55PM 45.1413 -94.1113 292° West  Level FlightAware Approximate
07:55PM 45.0614 -93.2206 275° West 337 388 12,100  Level Minneapolis Center
07:56PM 45.0667 -93.3578 273° West 354 407 14,500 2,100 Climbing Minneapolis Center
07:57PM 45.0733 -93.4989 274° West 363 418 16,500 1,740 Climbing Minneapolis Center
07:58PM 45.0794 -93.6453 273° West 377 434 18,100 2,040 Climbing Minneapolis Center
07:59PM 45.0864 -93.8281 273° West 390 449 20,800 1,980 Climbing Minneapolis Center
08:00PM 45.1439 -93.9858 297° West 402 463 22,600 1,500 Climbing Minneapolis Center
08:01PM 45.2264 -94.0983 316° Northwest 412 474 24,300 1,500 Climbing Minneapolis Center
08:02PM 45.2822 -94.2286 301° West 400 460 25,700 1,020 Climbing Minneapolis Center
08:03PM 45.2833 -94.3886 271° West 405 466 26,400 660 Climbing Minneapolis Center
08:04PM 45.2833 -94.5597 270° West 428 493 27,100 840 Climbing Minneapolis Center
08:05PM 45.2856 -94.7489 271° West 444 511 28,200 1,260 Climbing Minneapolis Center
08:06PM 45.2858 -94.9261 270° West 449 517 29,700 1,260 Climbing Minneapolis Center
08:07PM 45.2842 -95.1022 269° West 450 518 30,900 1,380 Climbing Minneapolis Center
08:08PM 45.2833 -95.2756 270° West 443 510 32,600 1,500 Climbing Minneapolis Center
08:09PM 45.2831 -95.4767 270° West 429 494 34,000 660 Climbing Minneapolis Center
08:10PM 45.2817 -95.6414 269° West 423 487 34,000  Level Minneapolis Center
08:11PM 45.2811 -95.8072 270° West 422 486 34,000  Level Minneapolis Center
08:12PM 45.2794 -95.9733 269° West 423 487 34,000  Level Minneapolis Center
08:13PM 45.2783 -96.1408 270° West 426 490 34,000  Level Minneapolis Center
08:14PM 45.2758 -96.3100 269° West 430 495 34,000  Level Minneapolis Center
08:15PM 45.2736 -96.4792 269° West 432 497 34,000  Level Minneapolis Center
08:16PM 45.2706 -96.6483 269° West 431 496 34,000  Level Minneapolis Center
08:17PM 45.2675 -96.8522 269° West 434 499 34,000  Level Minneapolis Center
08:18PM 45.2647 -97.0214 269° West 432 497 34,000  Level Minneapolis Center
08:20PM 45.2617 -97.1889 269° West 429 494 34,000  Level Minneapolis Center
08:21PM 45.2581 -97.3567 268° West 428 493 34,000  Level Minneapolis Center
08:22PM 45.2539 -97.5228 268° West 425 489 34,000  Level Minneapolis Center
08:23PM 45.2506 -97.6900 268° West 426 490 34,000  Level Minneapolis Center
08:24PM 45.2458 -97.8572 268° West 426 490 34,000  Level Minneapolis Center
08:25PM 45.2411 -98.0239 268° West 425 489 34,000  Level Minneapolis Center
08:26PM 45.2364 -98.2067 268° West 426 490 34,000  Level Minneapolis Center
08:27PM 45.2328 -98.3753 268° West 427 491 34,000  Level Minneapolis Center
08:28PM 45.2258 -98.5419 267° West 426 490 34,000  Level Minneapolis Center
08:29PM 45.2211 -98.7064 268° West 421 484 34,000  Level Minneapolis Center
08:30PM 45.2144 -98.9036 267° West 418 481 34,000  Level Minneapolis Center
08:31PM 45.2083 -99.0661 267° West 416 479 34,000  Level Minneapolis Center
08:32PM 45.2025 -99.2283 267° West 414 476 34,000  Level Minneapolis Center
08:33PM 45.1958 -99.3900 267° West 412 474 34,000  Level Minneapolis Center
08:34PM 45.1892 -99.5503 267° West 411 473 34,000  Level Minneapolis Center
08:35PM 45.1828 -99.7114 267° West 412 474 34,000  Level Minneapolis Center
08:36PM 45.1786 -99.8703 268° West 411 473 34,000  Level Minneapolis Center
08:37PM 45.1686 -100.0650 266° West 422 486 34,000  Level Minneapolis Center
08:38PM 45.1358 -100.2172 253° West 413 475 34,000  Level Minneapolis Center
08:39PM 45.1036 -100.3731 254° West 414 476 34,000  Level Minneapolis Center
08:40PM 45.0719 -100.5303 254° West 417 480 34,000  Level Minneapolis Center
08:41PM 45.0403 -100.6858 254° West 415 478 34,000  Level Minneapolis Center
08:42PM 45.0092 -100.8439 254° West 417 480 34,000  Level Minneapolis Center
08:43PM 44.9719 -101.0314 254° West 415 478 34,000  Level Minneapolis Center
08:44PM 44.9419 -101.1847 255° West 409 471 34,000  Level Minneapolis Center
08:45PM 44.9119 -101.3383 255° West 407 468 34,000  Level Minneapolis Center
08:47PM 44.8558 -101.6386 255° West 406 467 34,000  Level Salt Lake Center
08:48PM 44.8239 -101.8083 255° West 403 464 34,000  Level Salt Lake Center
08:49PM 44.8142 -101.9550 265° West 402 463 34,000  Level Minneapolis Center
08:50PM 44.8186 -102.1117 272° West 402 463 34,000  Level Minneapolis Center
08:51PM 44.8253 -102.2706 273° West 405 466 34,000  Level Minneapolis Center
08:52PM 44.8322 -102.4603 273° West 404 465 34,000  Level Minneapolis Center
08:53PM 44.8344 -102.5847 271° West 402 463 34,000  Level Minneapolis Center
08:54PM 44.8372 -102.7394 272° West 398 458 34,000  Level Minneapolis Center
08:55PM 44.8411 -102.9303 272° West 403 464 34,000  Level Minneapolis Center
08:56PM 44.8486 -103.0869 274° West 404 465 34,000  Level Minneapolis Center
08:57PM 44.8558 -103.2400 274° West 396 456 34,000  Level Minneapolis Center
08:58PM 44.8778 -103.3903 282° West 395 455 34,000  Level Minneapolis Center
08:59PM 44.9194 -103.5386 292° West 398 458 34,000  Level Salt Lake Center
09:00PM 44.9614 -103.6992 290° West 394 453 34,000  Level Salt Lake Center
09:02PM 44.9978 -103.8386 290° West 394 453 34,000 120 Level Salt Lake Center
09:03PM 45.0414 -104.0083 290° West 408 470 34,300 720 Climbing Salt Lake Center
09:04PM 45.0781 -104.1556 289° West 415 478 35,500 780 Climbing Salt Lake Center
09:05PM 45.1144 -104.2989 290° West 408 470 36,000 240 Climbing Salt Lake Center
09:06PM 45.1575 -104.4664 290° West 407 468 36,000  Level Salt Lake Center
09:07PM 45.1928 -104.6086 289° West 406 467 36,000  Level Salt Lake Center
09:08PM 45.2294 -104.7614 289° West 409 471 36,000  Level Salt Lake Center
09:09PM 45.2675 -104.9131 290° West 410 472 36,000  Level Salt Lake Center
09:10PM 45.3111 -105.0947 289° West 407 468 36,000  Level Salt Lake Center
09:11PM 45.3492 -105.2481 289° West 412 474 36,000  Level Salt Lake Center
09:12PM 45.3861 -105.4017 289° West 413 475 36,000  Level Salt Lake Center
09:13PM 45.4244 -105.5583 289° West 419 482 36,000  Level Salt Lake Center
09:14PM 45.4614 -105.7144 289° West 418 481 36,000  Level Salt Lake Center
09:15PM 45.4975 -105.8694 288° West 415 478 36,000  Level Salt Lake Center
09:16PM 45.5339 -106.0247 289° West 417 480 36,000  Level Salt Lake Center
09:17PM 45.5703 -106.1786 289° West 413 475 36,000  Level Salt Lake Center
09:18PM 45.6136 -106.3672 288° West 418 481 36,000  Level Salt Lake Center
09:19PM 45.6483 -106.5203 288° West 412 474 36,000  Level Salt Lake Center
09:20PM 45.6822 -106.6728 288° West 407 468 36,000  Level Salt Lake Center
09:21PM 45.7175 -106.8275 288° West 409 471 36,000  Level Salt Lake Center
09:22PM 45.7525 -106.9811 288° West 409 471 36,000  Level Salt Lake Center
09:23PM 45.7869 -107.1331 288° West 406 467 36,000  Level Salt Lake Center
09:24PM 45.8186 -107.2825 287° West 401 461 36,000  Level Salt Lake Center
09:25PM 45.8533 -107.4358 288° West 404 465 36,000  Level Salt Lake Center
09:26PM 45.8936 -107.6172 288° West 400 460 36,000  Level Salt Lake Center
09:27PM 45.9269 -107.7722 287° West 403 464 36,000  Level Salt Lake Center
09:28PM 45.9597 -107.9247 287° West 401 461 36,000  Level Salt Lake Center
09:29PM 45.9917 -108.0764 287° West 400 460 36,000  Level Salt Lake Center
09:30PM 46.0244 -108.2292 287° West 402 463 36,000  Level Salt Lake Center
09:31PM 46.0569 -108.3822 287° West 402 463 36,000  Level Salt Lake Center
09:32PM 46.0894 -108.5369 287° West 406 467 36,000  Level Salt Lake Center
09:33PM 46.1208 -108.6925 286° West 407 468 36,000  Level Salt Lake Center
09:34PM 46.1594 -108.8814 287° West 410 472 36,000  Level Salt Lake Center
09:35PM 46.1914 -109.0383 286° West 410 472 36,000  Level Salt Lake Center
09:36PM 46.2231 -109.1944 286° West 407 468 36,000  Level Salt Lake Center
09:37PM 46.2547 -109.3500 286° West 406 467 36,000  Level Salt Lake Center
09:38PM 46.2856 -109.5075 286° West 408 470 36,000  Level Salt Lake Center
09:39PM 46.3169 -109.6631 286° West 407 468 36,000  Level Salt Lake Center
09:40PM 46.3467 -109.8211 285° West 409 471 36,000  Level Salt Lake Center
09:41PM 46.3756 -109.9783 285° West 407 468 36,000  Level Salt Lake Center
09:42PM 46.4047 -110.1319 285° West 401 461 36,000  Level Salt Lake Center
09:43PM 46.4403 -110.3167 286° West 399 459 36,000  Level Salt Lake Center
09:44PM 46.4700 -110.4717 286° West 400 460 36,000 -60 Level Salt Lake Center
09:45PM 46.4983 -110.6292 285° West 406 467 35,900 -60 Descending Salt Lake Center
09:47PM 46.5283 -110.7858 286° West 404 465 35,900  Level Salt Lake Center
09:48PM 46.5569 -110.9458 285° West 408 470 36,000  Climbing Salt Lake Center
09:49PM 46.5875 -111.1031 286° West 405 466 36,000 -60 Level Salt Lake Center
09:50PM 46.6161 -111.2650 284° West 411 473 35,900  Descending Salt Lake Center
09:51PM 46.6442 -111.4258 284° West 411 473 36,000  Climbing Salt Lake Center
09:52PM 46.6725 -111.5847 285° West 407 468 36,000 -60 Level Salt Lake Center
09:53PM 46.7011 -111.7461 285° West 410 472 35,900  Descending Salt Lake Center
09:54PM 46.7292 -111.9094 284° West 414 476 36,000  Climbing Salt Lake Center
09:55PM 46.7639 -112.1067 284° West 417 480 35,900 -60 Descending Salt Lake Center
09:56PM 46.7908 -112.2697 284° West 415 478 35,900  Level Salt Lake Center
09:57PM 46.8178 -112.4286 284° West 407 468 35,900  Level Salt Lake Center
09:58PM 46.8453 -112.5864 284° West 403 464 36,000  Climbing Salt Lake Center
09:59PM 46.8706 -112.7419 283° West 397 457 36,000 -60 Level Salt Lake Center
10:00PM 46.8953 -112.8978 283° West 395 455 35,900 -60 Descending Salt Lake Center
10:01PM 46.9200 -113.0428 284° West 400 460 35,900  Level Salt Lake Center
10:02PM 46.9506 -113.2319 283° West 398 458 36,000  Climbing Salt Lake Center
10:03PM 46.9764 -113.3931 283° West 404 465 35,900  Descending Salt Lake Center
10:04PM 47.0017 -113.5539 283° West 406 467 36,000  Climbing Salt Lake Center
10:05PM 47.0272 -113.7144 283° West 406 467 36,000  Level Salt Lake Center
10:06PM 47.0514 -113.8719 283° West 399 459 36,000 -60 Level Salt Lake Center
10:07PM 47.0767 -114.0308 283° West 399 459 35,900  Descending Salt Lake Center
10:08PM 47.1000 -114.1903 282° West 399 459 36,000  Climbing Salt Lake Center
10:09PM 47.1250 -114.3508 283° West 403 464 35,900  Descending Salt Lake Center
10:10PM 47.1483 -114.5111 282° West 401 461 36,000  Climbing Salt Lake Center
10:11PM 47.1717 -114.6722 282° West 403 464 36,000  Level Salt Lake Center
10:12PM 47.1953 -114.8339 282° West 405 466 36,000  Level Salt Lake Center
10:13PM 47.2233 -115.0244 282° West 397 457 36,000  Level Salt Lake Center
10:14PM 47.2411 -115.1533 282° West 399 459 36,000  Level Seattle Center
10:15PM 47.2689 -115.3456 282° West 400 460 36,000  Level Seattle Center
10:16PM 47.2908 -115.5061 281° West 400 460 36,000 -60 Level Seattle Center
10:17PM 47.3144 -115.6675 282° West 403 464 35,900  Descending Seattle Center
10:18PM 47.3367 -115.8256 282° West 398 458 36,000  Climbing Seattle Center
10:19PM 47.3706 -115.9833 288° West 402 463 36,000 -60 Level Seattle Center
10:20PM 47.4033 -116.1414 287° West 405 466 35,900 -60 Descending Seattle Center
10:21PM 47.4361 -116.3000 287° West 404 465 35,900  Level Seattle Center
10:22PM 47.4681 -116.4567 287° West 401 461 35,900  Level Seattle Center
10:23PM 47.4994 -116.6131 287° West 399 459 35,900  Level Seattle Center
10:24PM 47.5319 -116.7706 287° West 401 461 36,000  Climbing Seattle Center
10:25PM 47.5636 -116.9239 287° West 395 455 35,900  Descending Seattle Center
10:26PM 47.5944 -117.0897 285° West 403 464 36,000  Climbing Seattle Center
10:27PM 47.6294 -117.2639 287° West 403 464 36,000  Level Seattle Center
10:28PM 47.6603 -117.4214 286° West 401 461 36,000 -60 Level Seattle Center
10:29PM 47.6914 -117.5814 286° West 404 465 35,900 -60 Descending Seattle Center
10:30PM 47.7211 -117.7431 285° West 406 467 35,900  Level Seattle Center
10:31PM 47.7519 -117.9053 286° West 409 471 36,000  Climbing Seattle Center
10:32PM 47.7825 -118.0711 285° West 416 479 35,900  Descending Seattle Center
10:33PM 47.8144 -118.2353 286° West 415 478 36,000  Climbing Seattle Center
10:34PM 47.8442 -118.4003 285° West 414 476 36,000  Level Seattle Center
10:35PM 47.8747 -118.5681 285° West 419 482 36,000  Level Seattle Center
10:36PM 47.9047 -118.7381 285° West 423 487 36,000  Level Seattle Center
10:37PM 47.9364 -118.9075 286° West 423 487 36,000 -60 Level Seattle Center
10:38PM 47.9669 -119.0797 285° West 431 496 35,900  Descending Seattle Center
10:39PM 47.9978 -119.2525 285° West 433 498 36,000  Climbing Seattle Center
10:40PM 48.0325 -119.4611 284° West 436 502 36,000 -60 Level Seattle Center
10:41PM 48.0622 -119.6350 284° West 435 501 35,900  Descending Seattle Center
10:42PM 48.0939 -119.8086 285° West 436 502 36,000 -60 Climbing Seattle Center
10:43PM 48.1261 -119.9839 285° West 440 506 35,800 -1,080 Descending Seattle Center
10:44PM 48.1503 -120.1594 282° West 437 503 33,900 -1,920 Descending Seattle Center
10:45PM 48.1792 -120.3325 284° West 433 498 32,000 -1,920 Descending Seattle Center
10:46PM 48.2081 -120.5086 284° West 433 498 30,100 -1,920 Descending Seattle Center
10:47PM 48.2422 -120.6869 286° West 447 514 28,200 -1,860 Descending Seattle Center
10:48PM 48.2703 -120.8600 284° West 441 507 26,400 -1,740 Descending Seattle Center
10:49PM 48.2969 -121.0275 284° West 423 487 24,700 -1,680 Descending Seattle Center
10:50PM 48.3203 -121.1878 282° West 405 466 23,100 -1,680 Descending Seattle Center
10:51PM 48.3506 -121.3769 284° West 396 456 21,400 -1,500 Descending Seattle Center
10:53PM 48.3736 -121.5317 283° West 388 447 20,100 -1,260 Descending Seattle Center
10:54PM 48.3967 -121.6814 283° West 376 433 18,900 -1,200 Descending Seattle Center
10:55PM 48.4475 -121.8106 301° West 365 420 17,800 -1,080 Descending Seattle Center
10:56PM 48.5053 -121.9336 305° West 366 421 16,800 -1,140 Descending Seattle Center
10:57PM 48.5642 -122.0539 307° West 363 418 15,600 -1,200 Descending Seattle Center
10:58PM 48.6142 -122.1783 301° West 354 407 14,400 -1,200 Descending Seattle Center
10:59PM 48.6569 -122.3236 294° West 355 409 13,300 -1,320 Descending Seattle Center
10:59PM 48.6833 -122.4333 290° West 350 403 12,100 -780 Descending Vancouver Center
11:00PM 48.7167 -122.5333 297° West 300 345 12,000 -120 Descending Vancouver Center
11:01PM 48.7667 -122.6333 307° West 280 322 11,900 -900 Descending Vancouver Center
11:02PM 48.8167 -122.7333 307° West 280 322 10,300 -1,560 Descending Vancouver Center
11:03PM 48.8500 -122.8333 297° West 280 322 8,800 -1,200 Descending Vancouver Center
11:04PM 48.9000 -122.9167 312° West 270 311 8,000 -720 Descending Vancouver Center
11:05PM 48.9667 -122.9333 351° North 240 276 7,400 -1,020 Descending Vancouver Center
11:06PM 49.0333 -122.9167 North 240 276 6,000 -1,800 Descending Vancouver Center
11:07PM 49.1000 -122.8833 18° North 230 265 3,800 -2,220 Descending Vancouver Center